Accueil
METAR-TAF:

METAR-TAF

Aéroports :

Gällivare, Suède

Aérodrome de Gällivare

latitude: 67-09N, longitude: 020-39E, altitude: 359 m

Observation

Le bulletin a été fait il y a 30 minutes, à 09:20 UTC
Vent 3 kt de ouest
Température -22°C
Humidité 84%
Pression 1028 hPa
Visibilité 10 km ou plus
Quelques nuages à une hauteur de 3600 ft
Nuages épars à une hauteur de 4400 ft

METAR: ESNG 200920Z 27003KT 9999 FEW036 SCT044 M22/M24 Q1028

Heure: 10:50 (09:50 UTC)

Prévision

Le bulletin a été fait il y a 1 heure et 20 minutes, à 08:30 UTC
Prévision valable du 20 à 09 UTC au 20 à 12 UTC
Vent 3 kt de direction variable
Visibilité 10 km ou plus
pas de nuages en-dessous de 1500 mètres et pas de cumulonimbus.

TAF: ESNG 200830Z 2009/2012 VRB03KT CAVOK

Observations et prévisions météorologiques de plus de 4000 aéroports (messages METAR et TAF).

Les stations disponibles sont représentées par des disques jaunes et rouges sur la carte.

Passer la souris dessus pour voir le nom de la station.

Cliquer dessus pour voir les observations et prévisions météorologiques.

Pour changer de carte: cliquez sur les boutons verts avec une croix noire pour zoomer, sur le bouton vert avec un tiret pour effectuer un zoom arrière, ou sur les flèches vertes pour les cartes adjacentes.


METAR-TAF: